In Rescue
 
Open Full Screen Window  High Contrast Mode
Wind Gusting 14 knots
09
May 25, 2022 10:15 PM EDT
Weather Information
Wind Direction
  150 °
Wind Speed
  09 kt (10 mph)
Wind Gust
  14 kt (16 mph)
Altimeter
29.96 in
Visibility
10 SM
Temperature
17° C
63° F
Dewpoint
14° C
57° F
Humidity
83%
Sky Condition
Scattered @ 12,000 ft
VFR

METAR KBAX 260215Z AUTO 15009G14KT 10SM SCT120 17/14 A2996 RMK AO2 T01710140

FAA Disclaimer: The data displayed is for advisory purposes only and is not to be used for flight planning or operations.